Time;durP1;ratioP1;P1;durP2;ratioP2;P2;SDS_P1;SDS_P2;PMS_P1;PMS_P2;Temp;Humidity;BMP_temperature;BMP_pressure;BME280_temperature;BME280_humidity;BME280_pressure;Samples;Min_cycle;Max_cycle;Signal;HPM_P1;HPM_P2
2023/05/30 00:01:43;;;;;;;16.52;4.03;;;11.10;99.90;;;;;;5054073;28;20028;-74
2023/05/30 00:04:09;;;;;;;28.15;8.90;;;11.10;99.90;;;;;;5064836;28;20051;-76
2023/05/30 00:06:34;;;;;;;22.55;5.97;;;11.10;99.90;;;;;;5073238;28;20432;-75
2023/05/30 00:09:01;;;;;;;20.65;4.57;;;11.20;99.90;;;;;;5074868;28;20036;-73
2023/05/30 00:11:28;;;;;;;22.50;5.97;;;11.20;99.90;;;;;;5057313;28;20082;-74
2023/05/30 00:13:54;;;;;;;15.05;3.80;;;11.20;99.90;;;;;;5075206;28;20033;-74
2023/05/30 00:16:20;;;;;;;16.67;4.97;;;11.30;99.90;;;;;;5073752;28;20548;-76
2023/05/30 00:18:46;;;;;;;15.68;4.07;;;11.30;99.90;;;;;;5046629;28;20036;-75
2023/05/30 00:21:12;;;;;;;15.88;4.68;;;11.30;99.90;;;;;;5074878;28;20079;-76
2023/05/30 00:23:39;;;;;;;16.42;3.97;;;11.30;99.90;;;;;;5074472;28;20484;-73
2023/05/30 00:26:08;;;;;;;16.52;4.22;;;11.30;99.90;;;;;;5072849;28;20131;-72
2023/05/30 00:28:34;;;;;;;12.48;3.97;;;11.30;99.90;;;;;;5069068;28;20477;-73
2023/05/30 00:30:59;;;;;;;15.48;3.75;;;11.30;99.90;;;;;;5065161;28;20102;-76
2023/05/30 00:33:25;;;;;;;14.23;3.65;;;11.30;99.90;;;;;;5074140;28;20096;-74
2023/05/30 00:35:51;;;;;;;13.85;4.20;;;11.30;99.90;;;;;;5072176;28;20044;-74
2023/05/30 00:38:17;;;;;;;20.25;4.53;;;11.30;99.90;;;;;;5073837;28;20048;-76
2023/05/30 00:40:42;;;;;;;14.57;3.80;;;11.30;99.90;;;;;;5072582;28;20036;-76
2023/05/30 00:43:08;;;;;;;15.02;3.60;;;11.30;99.90;;;;;;5073876;28;20028;-74
2023/05/30 00:45:34;;;;;;;19.20;3.90;;;11.30;99.90;;;;;;5073825;28;20040;-73
2023/05/30 00:48:00;;;;;;;15.13;3.60;;;11.30;99.90;;;;;;5074538;28;20029;-77
2023/05/30 00:50:28;;;;;;;16.05;3.72;;;11.30;99.90;;;;;;5074842;28;20055;-74
2023/05/30 00:52:54;;;;;;;16.55;3.85;;;11.30;99.90;;;;;;5074193;28;20064;-74
2023/05/30 00:55:20;;;;;;;16.63;4.07;;;11.30;99.90;;;;;;5073653;28;20107;-73
2023/05/30 00:57:46;;;;;;;16.05;3.83;;;11.30;99.90;;;;;;5073747;28;20124;-75
2023/05/30 01:00:14;;;;;;;8.55;3.00;;;11.40;99.90;;;;;;5073851;28;20043;-75
2023/05/30 01:02:43;;;;;;;15.68;3.50;;;11.40;99.90;;;;;;5074284;28;20044;-73
2023/05/30 01:05:09;;;;;;;11.23;3.60;;;11.50;99.90;;;;;;5055272;28;20028;-74
2023/05/30 01:07:34;;;;;;;16.33;3.38;;;11.50;99.90;;;;;;5074135;28;20041;-75
2023/05/30 01:10:00;;;;;;;16.17;3.60;;;11.50;99.90;;;;;;5074026;28;20034;-75
2023/05/30 01:12:46;;;;;;;17.13;3.80;;;11.60;99.90;;;;;;5073667;28;20021;-75
2023/05/30 01:15:20;;;;;;;18.42;3.08;;;11.60;99.90;;;;;;5073185;28;20120;-75
2023/05/30 01:18:12;;;;;;;11.93;3.00;;;11.60;99.90;;;;;;5063781;28;20029;-74
2023/05/30 01:20:48;;;;;;;17.23;3.70;;;11.60;99.90;;;;;;5026508;28;20389;-75
2023/05/30 01:23:36;;;;;;;15.07;3.88;;;11.60;99.90;;;;;;5055554;28;20370;-75
2023/05/30 01:26:20;;;;;;;12.77;3.70;;;11.70;99.90;;;;;;5073607;28;20059;-75
2023/05/30 01:28:49;;;;;;;11.40;3.30;;;11.70;99.90;;;;;;5055760;28;20464;-73
2023/05/30 01:31:16;;;;;;;11.38;3.03;;;11.70;99.90;;;;;;5064164;28;20041;-76
2023/05/30 01:33:43;;;;;;;11.82;3.60;;;11.80;99.90;;;;;;5069973;28;20141;-76
2023/05/30 01:36:10;;;;;;;12.38;3.25;;;11.80;99.90;;;;;;5069501;28;20032;-76
2023/05/30 01:38:37;;;;;;;7.28;3.03;;;11.90;99.90;;;;;;5053214;28;20079;-73
2023/05/30 01:41:07;;;;;;;17.52;4.13;;;11.90;99.90;;;;;;5082206;28;20468;-74
2023/05/30 01:43:44;;;;;;;15.68;3.08;;;11.90;99.90;;;;;;5093591;28;20114;-76
2023/05/30 01:46:28;;;;;;;12.00;3.10;;;11.90;99.90;;;;;;5094301;28;20107;-76
2023/05/30 01:49:18;;;;;;;10.25;2.85;;;11.90;99.90;;;;;;5093257;28;20499;-74
2023/05/30 01:51:55;;;;;;;9.07;2.67;;;11.90;99.90;;;;;;5056674;28;20087;-72
2023/05/30 01:54:21;;;;;;;12.85;3.40;;;11.90;99.90;;;;;;5053524;28;20086;-74
2023/05/30 01:56:52;;;;;;;10.85;3.30;;;11.90;99.90;;;;;;5062456;28;20036;-73
2023/05/30 01:59:19;;;;;;;10.93;3.90;;;11.90;99.90;;;;;;5069785;28;20150;-75
2023/05/30 02:01:46;;;;;;;14.73;4.00;;;11.90;99.90;;;;;;5065405;28;20537;-74
2023/05/30 02:04:11;;;;;;;10.73;3.33;;;11.90;99.90;;;;;;5065641;28;20029;-72
2023/05/30 02:06:37;;;;;;;10.85;3.50;;;11.90;99.90;;;;;;5073348;28;20499;-75
2023/05/30 02:09:04;;;;;;;15.32;3.85;;;11.90;99.90;;;;;;5071255;28;20076;-75
2023/05/30 02:11:29;;;;;;;10.45;4.13;;;12.00;99.90;;;;;;5070320;28;20024;-73
2023/05/30 02:13:57;;;;;;;15.57;3.45;;;12.00;99.90;;;;;;5058351;28;20025;-73
2023/05/30 02:16:24;;;;;;;14.52;4.15;;;12.00;99.90;;;;;;5067219;28;20059;-75
2023/05/30 02:18:50;;;;;;;11.20;3.85;;;12.00;99.90;;;;;;5067385;28;20032;-76
2023/05/30 02:21:15;;;;;;;14.02;3.30;;;12.00;99.90;;;;;;5064298;28;20052;-74
2023/05/30 02:23:41;;;;;;;13.38;3.78;;;12.00;99.90;;;;;;5072836;28;20334;-74
2023/05/30 02:26:06;;;;;;;13.57;3.83;;;12.00;99.90;;;;;;5072701;28;20025;-74
2023/05/30 02:28:35;;;;;;;14.77;3.85;;;12.00;99.90;;;;;;5071783;28;20020;-74
2023/05/30 02:31:02;;;;;;;15.60;3.88;;;12.00;99.90;;;;;;5072906;28;20052;-73
2023/05/30 02:33:28;;;;;;;11.43;3.47;;;12.00;99.90;;;;;;5072656;28;20028;-73
2023/05/30 02:35:53;;;;;;;12.23;3.08;;;12.00;99.90;;;;;;5072387;28;20392;-74
2023/05/30 02:38:19;;;;;;;11.27;3.47;;;12.00;99.90;;;;;;5072190;28;20484;-75
2023/05/30 02:40:57;;;;;;;15.10;3.88;;;11.90;99.90;;;;;;5072774;28;20028;-73
2023/05/30 02:43:30;;;;;;;11.40;3.78;;;11.90;99.90;;;;;;5072179;28;20449;-75
2023/05/30 02:46:08;;;;;;;11.35;4.15;;;11.90;99.90;;;;;;5072630;28;20024;-73
2023/05/30 02:48:42;;;;;;;13.77;3.70;;;11.80;99.90;;;;;;5072773;28;20028;-74
2023/05/30 02:51:15;;;;;;;12.93;3.60;;;11.80;99.90;;;;;;5070907;28;20028;-76
2023/05/30 02:53:45;;;;;;;15.98;3.72;;;11.80;99.90;;;;;;5044384;28;20037;-74
2023/05/30 02:56:15;;;;;;;8.77;3.25;;;11.80;99.90;;;;;;5033436;28;20521;-74
2023/05/30 02:58:45;;;;;;;13.85;3.78;;;11.80;99.90;;;;;;5070334;28;20099;-76
2023/05/30 03:01:15;;;;;;;12.02;3.47;;;11.80;99.90;;;;;;5051867;28;20465;-74
2023/05/30 03:03:47;;;;;;;14.55;4.20;;;11.80;99.90;;;;;;5053106;28;20028;-73
2023/05/30 03:06:20;;;;;;;13.65;3.78;;;11.80;99.90;;;;;;5052948;28;20035;-78
2023/05/30 03:09:06;;;;;;;11.10;3.63;;;11.80;99.90;;;;;;5054442;28;20083;-77
2023/05/30 03:11:38;;;;;;;11.98;3.97;;;11.80;99.90;;;;;;5054854;28;20031;-74
2023/05/30 03:14:15;;;;;;;11.75;3.45;;;11.80;99.90;;;;;;5033708;28;20065;-73
2023/05/30 03:16:46;;;;;;;11.25;3.72;;;11.80;99.90;;;;;;5033881;28;20049;-75
2023/05/30 03:19:20;;;;;;;18.88;4.50;;;11.80;99.90;;;;;;5053338;28;20420;-74
2023/05/30 03:21:59;;;;;;;12.20;3.17;;;11.80;99.90;;;;;;5013956;28;20042;-74
2023/05/30 03:24:44;;;;;;;11.15;3.25;;;11.80;99.90;;;;;;5015802;28;20466;-73
2023/05/30 03:27:15;;;;;;;11.73;4.00;;;11.80;99.90;;;;;;5016542;28;20536;-74
2023/05/30 03:29:52;;;;;;;13.18;3.88;;;11.90;99.90;;;;;;5018006;28;20068;-76
2023/05/30 03:32:18;;;;;;;15.45;4.10;;;11.90;99.90;;;;;;5071535;28;20032;-77
2023/05/30 03:34:53;;;;;;;12.30;4.13;;;11.90;99.90;;;;;;5072043;28;20029;-74
2023/05/30 03:37:20;;;;;;;11.45;3.78;;;11.90;99.90;;;;;;5070778;28;20481;-74
2023/05/30 03:39:50;;;;;;;11.05;3.67;;;12.00;99.90;;;;;;5070920;28;20101;-75
2023/05/30 03:42:21;;;;;;;8.52;3.33;;;12.00;99.90;;;;;;5073863;28;20059;-76
2023/05/30 03:44:49;;;;;;;11.90;3.67;;;12.00;99.90;;;;;;5071241;28;20085;-74
2023/05/30 03:47:23;;;;;;;11.07;3.97;;;12.00;99.90;;;;;;5078080;28;20128;-74
2023/05/30 03:50:00;;;;;;;13.52;3.83;;;12.00;99.90;;;;;;5070610;28;20032;-73
2023/05/30 03:52:42;;;;;;;12.90;3.78;;;12.00;99.90;;;;;;5070773;28;20110;-74
2023/05/30 03:55:16;;;;;;;10.80;4.65;;;12.00;99.90;;;;;;5075710;28;20028;-78
2023/05/30 03:57:47;;;;;;;10.85;3.88;;;12.00;99.90;;;;;;5063193;28;20037;-74
2023/05/30 04:00:19;;;;;;;9.00;3.30;;;11.90;99.90;;;;;;5057180;28;20067;-76
2023/05/30 04:02:45;;;;;;;;;;;11.90;99.90;;;;;;5073191;28;20044;-74
2023/05/30 04:05:14;;;;;;;9.02;3.47;;;12.00;99.90;;;;;;5074554;28;19909;-74
2023/05/30 04:07:48;;;;;;;7.93;3.63;;;11.90;99.90;;;;;;5057467;28;20029;-75
2023/05/30 04:10:19;;;;;;;12.98;3.55;;;11.90;99.90;;;;;;5070302;28;20125;-73
2023/05/30 04:12:44;;;;;;;16.20;4.68;;;11.90;99.90;;;;;;5053779;28;20036;-73
2023/05/30 04:15:10;;;;;;;13.15;3.45;;;11.90;99.90;;;;;;5055260;28;20104;-73
2023/05/30 04:17:36;;;;;;;11.95;3.92;;;12.00;99.90;;;;;;5054868;28;20037;-73
2023/05/30 04:20:04;;;;;;;12.55;4.18;;;12.00;99.90;;;;;;5058264;28;20099;-74
2023/05/30 04:22:30;;;;;;;16.33;4.50;;;12.10;99.90;;;;;;5074875;28;20377;-76
2023/05/30 04:24:56;;;;;;;13.77;4.00;;;12.10;99.90;;;;;;5074270;28;20028;-74
2023/05/30 04:27:22;;;;;;;13.77;3.90;;;12.20;99.90;;;;;;5074950;28;20024;-74
2023/05/30 04:29:48;;;;;;;13.93;3.25;;;12.20;99.90;;;;;;5075328;28;20050;-74
2023/05/30 04:32:14;;;;;;;15.48;4.00;;;12.30;99.90;;;;;;5055017;28;20469;-74
2023/05/30 04:34:40;;;;;;;11.85;3.55;;;12.30;99.90;;;;;;5055084;28;20033;-75
2023/05/30 04:37:07;;;;;;;11.73;3.80;;;12.40;99.90;;;;;;5054939;28;20540;-74
2023/05/30 04:39:33;;;;;;;16.40;4.28;;;12.40;99.90;;;;;;5058246;28;20047;-75
2023/05/30 04:41:59;;;;;;;18.45;4.75;;;12.50;99.90;;;;;;5061363;28;20060;-74
2023/05/30 04:44:25;;;;;;;14.77;3.83;;;12.50;99.90;;;;;;5064016;28;20032;-73
2023/05/30 04:46:51;;;;;;;15.05;4.28;;;12.50;99.90;;;;;;5068077;28;20018;-77
2023/05/30 04:49:17;;;;;;;11.93;3.15;;;12.60;99.90;;;;;;5063633;28;20081;-73
2023/05/30 04:51:46;;;;;;;12.10;3.38;;;12.60;99.90;;;;;;5061414;28;20051;-74
2023/05/30 04:54:13;;;;;;;13.23;3.38;;;12.60;99.90;;;;;;5064803;28;20147;-74
2023/05/30 04:56:39;;;;;;;19.88;4.15;;;12.60;99.90;;;;;;5062965;28;20029;-74
2023/05/30 04:59:05;;;;;;;12.35;3.75;;;12.70;99.90;;;;;;5064870;28;21652;-75
2023/05/30 05:01:35;;;;;;;10.43;3.13;;;12.70;99.90;;;;;;5063905;28;20021;-73
2023/05/30 05:04:02;;;;;;;11.88;3.80;;;12.80;99.90;;;;;;5062009;28;20384;-74
2023/05/30 05:06:27;;;;;;;9.45;2.85;;;12.90;99.90;;;;;;5064211;28;20029;-76
2023/05/30 05:08:53;;;;;;;17.52;3.83;;;12.90;99.90;;;;;;5062045;28;20424;-75
2023/05/30 05:11:18;;;;;;;11.05;2.88;;;12.90;99.90;;;;;;5063163;28;20515;-74
2023/05/30 05:13:44;;;;;;;12.93;3.17;;;13.00;99.90;;;;;;5045340;28;20037;-73
2023/05/30 05:16:10;;;;;;;14.27;3.58;;;13.10;99.90;;;;;;5061535;28;20032;-77
2023/05/30 05:18:35;;;;;;;8.88;2.38;;;13.20;99.90;;;;;;5070577;28;20060;-75
2023/05/30 05:21:01;;;;;;;16.77;4.25;;;13.30;99.90;;;;;;5062788;28;20033;-73
2023/05/30 05:23:28;;;;;;;13.25;3.50;;;13.40;99.90;;;;;;5061236;28;20491;-75
2023/05/30 05:25:53;;;;;;;13.50;3.30;;;13.40;99.90;;;;;;5044757;28;20020;-75
2023/05/30 05:28:19;;;;;;;11.63;3.72;;;13.40;99.90;;;;;;5060783;28;20423;-73
2023/05/30 05:30:45;;;;;;;14.98;3.30;;;13.50;99.90;;;;;;5050632;28;20061;-72
2023/05/30 05:33:13;;;;;;;15.65;3.67;;;13.60;99.90;;;;;;5038197;28;20017;-74
2023/05/30 05:35:38;;;;;;;17.73;3.58;;;13.60;99.90;;;;;;5049057;28;20032;-73
2023/05/30 05:38:04;;;;;;;11.25;3.33;;;13.70;99.90;;;;;;5054630;28;20033;-76
2023/05/30 05:40:30;;;;;;;14.05;4.22;;;13.70;99.90;;;;;;5034001;28;20105;-77
2023/05/30 05:42:55;;;;;;;17.85;4.38;;;13.70;99.90;;;;;;5034257;28;20022;-76
2023/05/30 05:45:21;;;;;;;13.40;3.60;;;13.90;99.90;;;;;;5017928;28;20149;-75
2023/05/30 05:47:46;;;;;;;11.43;2.78;;;14.00;99.90;;;;;;5036913;28;20040;-75
2023/05/30 05:50:12;;;;;;;13.15;3.72;;;14.10;99.90;;;;;;5051224;28;20488;-75
2023/05/30 05:52:38;;;;;;;12.57;3.15;;;14.20;99.90;;;;;;5053167;28;20025;-76
2023/05/30 05:55:05;;;;;;;15.02;3.50;;;14.40;99.90;;;;;;5053601;28;20389;-74
2023/05/30 05:57:30;;;;;;;12.60;3.67;;;14.50;99.90;;;;;;5053281;28;20529;-75
2023/05/30 05:59:56;;;;;;;8.68;3.22;;;14.60;99.90;;;;;;5052619;28;20033;-75
2023/05/30 06:02:21;;;;;;;14.73;3.13;;;14.60;99.90;;;;;;5053552;28;20372;-77
2023/05/30 06:04:47;;;;;;;14.65;4.20;;;14.60;99.90;;;;;;5052253;28;20361;-74
2023/05/30 06:07:13;;;;;;;12.00;3.40;;;14.70;99.90;;;;;;5052864;28;20376;-75
2023/05/30 06:09:39;;;;;;;15.98;3.70;;;14.70;99.90;;;;;;5023296;28;20401;-75
2023/05/30 06:12:05;;;;;;;14.02;3.50;;;14.80;99.90;;;;;;5036571;28;20034;-76
2023/05/30 06:14:31;;;;;;;13.43;3.78;;;14.90;99.90;;;;;;5045212;28;20358;-77
2023/05/30 06:16:56;;;;;;;14.13;3.50;;;15.00;99.90;;;;;;5052735;28;20045;-75
2023/05/30 06:19:22;;;;;;;12.93;2.72;;;14.90;99.90;;;;;;5053008;28;20444;-75
2023/05/30 06:21:48;;;;;;;13.55;3.72;;;14.80;99.90;;;;;;5029859;28;20082;-74
2023/05/30 06:24:13;;;;;;;14.27;3.33;;;14.80;99.90;;;;;;5043099;28;20038;-75
2023/05/30 06:26:39;;;;;;;12.68;3.00;;;14.90;99.90;;;;;;5033769;28;20029;-75
2023/05/30 06:29:04;;;;;;;14.05;3.20;;;15.00;99.90;;;;;;5015622;28;20032;-75
2023/05/30 06:31:30;;;;;;;11.85;3.28;;;15.20;99.90;;;;;;5054020;28;20045;-74
2023/05/30 06:33:56;;;;;;;8.85;2.60;;;15.50;99.90;;;;;;5072206;28;20028;-76
2023/05/30 06:36:21;;;;;;;8.00;2.50;;;15.60;99.90;;;;;;5072608;28;20116;-74
2023/05/30 06:38:47;;;;;;;13.85;3.03;;;15.70;99.90;;;;;;5071796;28;20055;-75
2023/05/30 06:41:13;;;;;;;15.73;3.85;;;15.80;99.90;;;;;;5069411;28;20033;-75
2023/05/30 06:43:39;;;;;;;12.25;2.72;;;15.80;99.90;;;;;;5092281;28;20488;-74
2023/05/30 06:46:06;;;;;;;11.82;3.08;;;15.80;99.90;;;;;;5093140;28;20032;-74
2023/05/30 06:48:31;;;;;;;16.38;3.40;;;15.70;99.90;;;;;;5062035;28;20029;-74
2023/05/30 06:50:57;;;;;;;15.40;2.72;;;15.70;99.90;;;;;;5051717;28;20111;-76
2023/05/30 06:53:22;;;;;;;9.57;2.40;;;16.00;99.90;;;;;;5053248;28;20429;-76
2023/05/30 06:55:48;;;;;;;8.25;3.10;;;16.60;99.90;;;;;;5052828;28;20033;-74
2023/05/30 06:58:14;;;;;;;10.65;2.75;;;16.70;99.90;;;;;;5058782;28;20025;-75
2023/05/30 07:00:39;;;;;;;12.98;2.75;;;16.70;99.80;;;;;;5062201;28;20476;-75
2023/05/30 07:03:05;;;;;;;16.63;3.60;;;17.10;99.50;;;;;;5052224;28;20044;-75
2023/05/30 07:05:30;;;;;;;6.88;2.08;;;17.50;99.00;;;;;;5058775;28;20449;-74
2023/05/30 07:07:56;;;;;;;12.13;3.22;;;17.70;98.30;;;;;;5058285;28;20036;-76
2023/05/30 07:10:21;;;;;;;12.05;2.63;;;17.50;98.40;;;;;;5071683;28;20090;-74
2023/05/30 07:12:47;;;;;;;13.90;2.95;;;17.50;98.50;;;;;;5072875;28;20025;-76
2023/05/30 07:15:13;;;;;;;11.60;2.90;;;17.70;98.60;;;;;;5073674;28;20028;-76
2023/05/30 07:17:38;;;;;;;9.07;2.08;;;17.70;98.20;;;;;;5076146;28;20045;-75
2023/05/30 07:20:08;;;;;;;15.98;3.25;;;17.60;98.30;;;;;;5072567;28;20021;-76
2023/05/30 07:22:33;;;;;;;13.25;3.45;;;17.50;98.70;;;;;;5055511;28;20021;-75
2023/05/30 07:24:59;;;;;;;12.68;2.80;;;17.60;98.70;;;;;;5056881;28;20105;-76
2023/05/30 07:27:25;;;;;;;12.80;3.40;;;17.60;98.80;;;;;;5066587;28;20028;-75
2023/05/30 07:29:50;;;;;;;11.32;2.92;;;17.60;98.90;;;;;;5075340;28;20076;-76
2023/05/30 07:32:16;;;;;;;14.25;3.17;;;17.60;98.80;;;;;;5076886;28;20024;-77
2023/05/30 07:34:42;;;;;;;9.63;2.53;;;17.50;98.70;;;;;;5077136;28;20025;-76
2023/05/30 07:37:08;;;;;;;11.80;3.00;;;17.40;98.70;;;;;;5074901;28;20743;-76
2023/05/30 07:39:34;;;;;;;10.82;2.72;;;17.50;98.60;;;;;;5076869;28;20032;-76
2023/05/30 07:42:00;;;;;;;6.90;2.42;;;17.50;98.40;;;;;;5072409;28;20036;-75
2023/05/30 07:44:26;;;;;;;10.57;2.78;;;17.40;98.50;;;;;;5071365;28;20024;-76
2023/05/30 07:46:51;;;;;;;9.85;2.45;;;17.40;98.50;;;;;;5057613;28;20056;-74
2023/05/30 07:49:19;;;;;;;10.40;2.33;;;17.30;98.60;;;;;;5076034;28;20464;-75
2023/05/30 07:51:45;;;;;;;9.77;2.80;;;17.10;98.70;;;;;;5075246;28;20035;-75
2023/05/30 07:54:11;;;;;;;10.50;2.70;;;17.00;99.10;;;;;;5057011;28;20021;-76
2023/05/30 07:56:36;;;;;;;10.80;2.95;;;17.00;99.20;;;;;;5056438;28;20481;-75
2023/05/30 07:59:02;;;;;;;12.70;3.05;;;17.10;99.40;;;;;;5055893;28;20103;-77
2023/05/30 08:01:27;;;;;;;12.13;2.92;;;17.30;99.40;;;;;;5065991;28;20056;-75
2023/05/30 08:03:54;;;;;;;15.23;3.00;;;17.50;99.30;;;;;;5056538;28;20108;-76
2023/05/30 08:06:20;;;;;;;10.25;2.90;;;17.50;99.10;;;;;;5060761;28;20145;-74
2023/05/30 08:08:46;;;;;;;9.30;3.00;;;17.40;99.30;;;;;;5075834;28;20046;-74
2023/05/30 08:11:14;;;;;;;9.50;3.03;;;17.30;99.70;;;;;;5075423;28;20031;-76
2023/05/30 08:13:41;;;;;;;17.83;3.42;;;17.30;99.90;;;;;;5061270;28;20064;-76
2023/05/30 08:16:10;;;;;;;7.93;2.70;;;17.40;99.90;;;;;;5055520;28;20036;-74
2023/05/30 08:18:36;;;;;;;8.45;2.65;;;17.30;99.90;;;;;;5057981;28;20112;-75
2023/05/30 08:21:02;;;;;;;7.22;2.78;;;17.20;99.90;;;;;;5075661;28;20037;-75
2023/05/30 08:23:28;;;;;;;9.25;2.90;;;17.20;99.90;;;;;;5074250;28;20106;-75
2023/05/30 08:25:53;;;;;;;15.90;3.65;;;16.90;99.90;;;;;;5063264;28;20052;-76
2023/05/30 08:28:20;;;;;;;9.55;3.00;;;16.80;99.90;;;;;;5074797;28;20032;-75
2023/05/30 08:30:49;;;;;;;8.48;2.78;;;16.80;99.90;;;;;;5049274;28;20045;-75
2023/05/30 08:33:19;;;;;;;8.68;2.47;;;16.80;99.90;;;;;;5055440;28;20372;-75
2023/05/30 08:35:45;;;;;;;10.50;3.20;;;16.70;99.90;;;;;;5032218;28;20033;-75
2023/05/30 08:38:11;;;;;;;10.57;3.47;;;16.70;99.90;;;;;;5034791;28;20021;-75
2023/05/30 08:40:42;;;;;;;10.02;2.67;;;16.70;99.90;;;;;;5034873;28;20030;-74
2023/05/30 08:43:08;;;;;;;9.70;2.53;;;16.50;99.90;;;;;;5040860;28;20056;-74
2023/05/30 08:45:34;;;;;;;6.25;2.58;;;16.50;99.90;;;;;;5059826;28;20500;-75
2023/05/30 08:48:01;;;;;;;9.77;2.72;;;16.40;99.90;;;;;;5055069;28;20056;-75
2023/05/30 08:50:29;;;;;;;7.45;2.70;;;16.20;99.90;;;;;;5037378;28;20373;-77
2023/05/30 08:53:03;;;;;;;4.32;2.00;;;16.00;99.90;;;;;;5055330;28;20025;-76
2023/05/30 08:55:34;;;;;;;3.60;1.90;;;15.90;99.90;;;;;;5056216;28;20029;-74
2023/05/30 08:58:24;;;;;;;5.45;2.20;;;15.90;99.90;;;;;;5056604;28;20040;-75
2023/05/30 09:00:52;;;;;;;6.85;2.50;;;15.80;99.90;;;;;;5052559;28;20424;-73
2023/05/30 09:03:20;;;;;;;8.05;2.63;;;15.70;99.90;;;;;;5054943;28;20373;-75
2023/05/30 09:05:46;;;;;;;9.43;2.13;;;15.70;99.90;;;;;;5055499;28;20469;-75
2023/05/30 09:08:13;;;;;;;6.50;2.20;;;15.80;99.90;;;;;;5054484;28;20036;-73
2023/05/30 09:10:48;;;;;;;7.63;2.17;;;15.90;99.90;;;;;;5054389;28;20032;-75
2023/05/30 09:13:14;;;;;;;6.80;2.42;;;15.90;99.90;;;;;;5054657;28;20125;-77
2023/05/30 09:15:39;;;;;;;7.03;2.30;;;15.90;99.90;;;;;;5053695;28;20045;-75
2023/05/30 09:18:05;;;;;;;5.97;2.35;;;16.00;99.90;;;;;;5052626;28;20037;-75
2023/05/30 09:20:31;;;;;;;8.85;2.97;;;16.10;99.90;;;;;;5034573;28;20382;-77
2023/05/30 09:22:58;;;;;;;6.85;2.17;;;16.20;99.90;;;;;;5034253;28;20022;-75
2023/05/30 09:25:24;;;;;;;6.50;2.10;;;16.30;99.90;;;;;;5034272;28;20029;-76
2023/05/30 09:27:51;;;;;;;10.27;3.53;;;16.40;99.90;;;;;;5034444;28;20028;-77
2023/05/30 09:30:18;;;;;;;5.22;2.53;;;16.40;99.90;;;;;;5030925;28;20045;-75
2023/05/30 09:33:02;;;;;;;10.77;3.25;;;16.40;99.90;;;;;;5067831;28;20423;-77
2023/05/30 09:35:28;;;;;;;7.95;2.35;;;16.40;99.90;;;;;;5073859;28;20095;-75
2023/05/30 09:37:54;;;;;;;6.32;2.45;;;16.40;99.90;;;;;;5073255;28;20045;-76
2023/05/30 09:40:20;;;;;;;6.10;2.22;;;16.40;99.90;;;;;;5064913;28;20025;-75
2023/05/30 09:42:54;;;;;;;5.88;2.80;;;16.50;99.90;;;;;;5053632;28;20048;-75
2023/05/30 09:45:24;;;;;;;4.28;1.67;;;16.60;99.90;;;;;;5060746;28;20027;-75
2023/05/30 09:47:52;;;;;;;6.80;2.10;;;16.50;99.90;;;;;;5073529;28;20392;-75
2023/05/30 09:50:22;;;;;;;6.43;2.72;;;16.50;99.90;;;;;;5072106;28;20056;-76
2023/05/30 09:52:51;;;;;;;2.55;1.55;;;16.50;99.90;;;;;;5073751;28;20032;-74
2023/05/30 09:55:17;;;;;;;4.97;2.55;;;16.60;99.90;;;;;;5067630;28;20021;-76
2023/05/30 09:57:48;;;;;;;3.63;2.00;;;16.70;99.90;;;;;;5053843;28;20127;-76
2023/05/30 10:00:29;;;;;;;2.97;1.70;;;16.70;99.90;;;;;;5059304;28;20124;-75
2023/05/30 10:02:57;;;;;;;3.35;1.80;;;16.80;99.90;;;;;;5073108;28;20404;-77
2023/05/30 10:05:24;;;;;;;6.97;2.58;;;16.90;99.90;;;;;;5066867;28;20377;-76
2023/05/30 10:07:52;;;;;;;2.58;1.98;;;16.90;99.90;;;;;;5052228;28;20025;-76
2023/05/30 10:10:19;;;;;;;4.57;1.90;;;16.90;99.90;;;;;;5053199;28;20411;-76
2023/05/30 10:12:52;;;;;;;3.60;2.20;;;16.90;99.90;;;;;;5059066;28;20032;-74
2023/05/30 10:15:19;;;;;;;5.18;2.03;;;16.90;99.90;;;;;;5067352;28;20013;-76
2023/05/30 10:18:05;;;;;;;3.88;1.70;;;16.90;99.90;;;;;;5052637;28;20051;-76
2023/05/30 10:20:31;;;;;;;4.93;2.22;;;16.70;99.90;;;;;;5052815;28;20109;-75
2023/05/30 10:22:59;;;;;;;4.78;2.00;;;16.60;99.90;;;;;;5072650;28;20448;-76
2023/05/30 10:25:27;;;;;;;4.38;2.03;;;16.60;99.90;;;;;;5062491;28;20027;-75
2023/05/30 10:27:55;;;;;;;3.78;2.00;;;16.60;99.90;;;;;;5073363;28;20107;-75
2023/05/30 10:30:27;;;;;;;7.38;2.17;;;16.60;99.90;;;;;;5071557;28;20044;-74
2023/05/30 10:33:07;;;;;;;6.00;2.25;;;16.70;99.90;;;;;;5073205;28;20115;-74
2023/05/30 10:35:34;;;;;;;4.90;2.38;;;16.90;99.90;;;;;;5072835;28;20031;-75
2023/05/30 10:38:00;;;;;;;4.40;2.30;;;16.90;99.90;;;;;;5072646;28;20121;-76
2023/05/30 10:40:45;;;;;;;3.03;1.77;;;16.90;99.90;;;;;;5072638;28;20431;-75
2023/05/30 10:43:23;;;;;;;3.03;1.77;;;16.90;99.90;;;;;;5073641;28;20028;-76
2023/05/30 10:46:04;;;;;;;4.80;2.00;;;17.20;99.90;;;;;;5059428;28;20039;-75
2023/05/30 10:48:44;;;;;;;5.93;1.90;;;17.30;99.90;;;;;;5072733;28;20447;-75
2023/05/30 10:51:11;;;;;;;5.00;1.98;;;17.40;99.90;;;;;;5072250;28;20036;-76
2023/05/30 10:53:46;;;;;;;4.32;1.95;;;17.50;99.90;;;;;;5072461;28;20024;-74
2023/05/30 10:56:41;;;;;;;6.40;3.28;;;17.60;99.90;;;;;;5073221;28;20029;-75
2023/05/30 10:59:19;;;;;;;3.90;2.50;;;17.60;99.90;;;;;;5071519;28;20379;-75
2023/05/30 11:02:05;;;;;;;3.03;2.00;;;17.70;99.90;;;;;;5053168;28;20094;-74
2023/05/30 11:04:42;;;;;;;5.63;2.20;;;17.80;99.90;;;;;;5052706;28;20025;-75
2023/05/30 11:07:11;;;;;;;5.00;1.88;;;17.90;99.90;;;;;;5052729;28;20381;-74
2023/05/30 11:09:41;;;;;;;5.22;1.98;;;18.00;99.90;;;;;;5052876;28;20024;-76
2023/05/30 11:12:08;;;;;;;5.07;2.13;;;17.90;99.90;;;;;;5050694;28;20472;-74
2023/05/30 11:14:39;;;;;;;7.78;2.40;;;17.90;99.90;;;;;;5053086;28;20108;-76
2023/05/30 11:17:05;;;;;;;4.97;2.03;;;17.90;99.90;;;;;;5053103;28;20037;-74
2023/05/30 11:19:39;;;;;;;2.03;1.05;;;17.80;99.90;;;;;;5054250;28;20029;-74
2023/05/30 11:22:15;;;;;;;5.57;1.38;;;17.80;99.90;;;;;;5074638;28;20029;-76
2023/05/30 11:24:42;;;;;;;2.65;1.38;;;17.60;99.90;;;;;;5056552;28;20025;-74
2023/05/30 11:27:15;;;;;;;3.30;1.75;;;17.50;99.90;;;;;;5074739;28;20040;-74
2023/05/30 11:29:55;;;;;;;1.45;1.25;;;17.70;99.90;;;;;;5074380;28;20049;-75
2023/05/30 11:32:23;;;;;;;2.58;1.40;;;18.00;99.90;;;;;;5052789;28;20029;-74
2023/05/30 11:34:58;;;;;;;4.70;1.50;;;18.10;99.90;;;;;;5038484;28;20030;-75
2023/05/30 11:37:25;;;;;;;6.47;1.35;;;18.00;99.90;;;;;;5037164;28;20061;-75
2023/05/30 11:39:55;;;;;;;2.72;1.30;;;18.00;99.90;;;;;;5039107;28;20021;-77
2023/05/30 11:42:21;;;;;;;1.33;1.20;;;18.30;99.90;;;;;;5057998;28;20054;-74
2023/05/30 11:44:46;;;;;;;2.17;1.40;;;18.60;99.90;;;;;;5039930;28;20021;-72
2023/05/30 11:47:15;;;;;;;1.55;1.00;;;18.90;99.80;;;;;;5050381;28;20043;-74
2023/05/30 11:49:41;;;;;;;2.33;1.30;;;19.20;99.20;;;;;;5040471;28;20032;-76
2023/05/30 11:52:07;;;;;;;2.63;1.23;;;19.10;99.30;;;;;;5038500;28;20076;-75
2023/05/30 11:54:33;;;;;;;3.22;0.95;;;19.00;99.60;;;;;;5046025;28;20107;-74
2023/05/30 11:57:02;;;;;;;2.58;0.85;;;19.00;99.80;;;;;;5035052;28;20125;-74
2023/05/30 11:59:27;;;;;;;1.30;0.90;;;19.00;99.70;;;;;;5052382;28;20029;-75
2023/05/30 12:01:54;;;;;;;1.77;0.68;;;19.00;99.20;;;;;;5052090;28;20366;-76
2023/05/30 12:04:24;;;;;;;2.35;1.00;;;18.90;99.30;;;;;;5055670;28;20031;-75
2023/05/30 12:06:49;;;;;;;1.17;0.80;;;18.80;99.20;;;;;;5042526;28;20040;-74
2023/05/30 12:09:16;;;;;;;1.30;0.90;;;19.00;99.20;;;;;;5054549;28;20033;-76
2023/05/30 12:11:58;;;;;;;1.65;1.10;;;19.10;99.10;;;;;;5055515;28;20117;-76
2023/05/30 12:14:40;;;;;;;2.47;1.35;;;19.30;99.20;;;;;;5055910;28;20037;-75
2023/05/30 12:17:13;;;;;;;2.55;0.93;;;19.50;98.50;;;;;;5054718;28;20040;-75
2023/05/30 12:19:43;;;;;;;1.75;1.35;;;19.50;98.80;;;;;;5055380;28;20032;-75
2023/05/30 12:22:11;;;;;;;2.92;1.00;;;19.40;98.90;;;;;;5052123;28;20040;-73
2023/05/30 12:24:37;;;;;;;5.45;1.33;;;19.20;99.20;;;;;;5053213;28;20075;-76
2023/05/30 12:27:05;;;;;;;1.92;1.13;;;18.80;99.90;;;;;;5046888;28;20025;-75
2023/05/30 12:29:35;;;;;;;3.92;1.23;;;18.50;99.90;;;;;;5053806;28;20025;-75
2023/05/30 12:32:02;;;;;;;1.63;1.20;;;18.00;99.90;;;;;;5034652;28;20064;-75
2023/05/30 12:34:45;;;;;;;2.67;1.63;;;17.80;99.90;;;;;;5037279;28;20036;-74
2023/05/30 12:37:12;;;;;;;2.53;1.35;;;17.70;99.90;;;;;;5043480;28;20128;-76
2023/05/30 12:40:01;;;;;;;5.82;1.52;;;17.50;99.90;;;;;;5046659;28;20021;-75
2023/05/30 12:42:27;;;;;;;3.00;1.40;;;17.40;99.90;;;;;;5049352;28;20431;-74
2023/05/30 12:45:01;;;;;;;3.00;1.38;;;17.30;99.90;;;;;;5054494;28;20033;-74
2023/05/30 12:47:30;;;;;;;2.63;1.38;;;17.20;99.90;;;;;;5055072;28;20025;-74
2023/05/30 12:49:56;;;;;;;3.65;1.40;;;17.30;99.90;;;;;;5054906;28;20029;-75